KDLH

Duluth International Airport

Duluth, Minnesota, USA
METAR KDLH 231055Z 00000KT 7SM R09/1000VP6000FT BCFG FEW110 10/09 A3012 RMK AO2 SLP200 T01000094
Observed Flight Rules
May-23 @ 10:55 UTC (12 minutes ago) Visual Flight Rules
Visibility Clouds Conditions
7 miles
  • Few at 11,000' AGL
  • Patches of
  • Fog
Temperatures Readings
Current 10°C / 50°F
Dewpoint 9°C / 48°F
Humidity 94%
Altimeter 30.12" Hg
Pressure 1020 hPa
Elevation 435
METAR KDLH 231055Z 00000KT 7SM R09/1000VP6000FT BCFG FEW110 10/09 A3012 RMK AO2 SLP200 T01000094
Observed Flight Rules
May-23 @ 10:55 UTC
(12 minutes ago)
VFR
Clouds
  • Few at 11,000' AGL
Conditions
  • Patches of
  • Fog
Temperature Dewpoint
10°C / 50°F 9°C / 48°F
Humidity Altimeter Pressure
94% 30.12" Hg 1020 hPa